KEBS/EBS METAR and TAF weather

Enter ICAO airport designator
Station Type Date Time Source
KEBS METAR 2021/05/14 13:55 UTC NOAA

KEBS 141355Z AUTO 19014KT 10SM FEW100 16/02 A3022 RMK AO2


Station Type Date Time Source
KEBS Decoded METAR 2021/05/14 13:55 UTC NOAA

Webster City, IA, United States (KEBS) 42-26N 093-52W
May 14, 2021 - 09:55 AM EDT / 2021.05.14 1355 UTC
Wind: from the S (190 degrees) at 16 MPH (14 KT):0
Visibility: 10 mile(s):0
Sky conditions: mostly clear
Temperature: 60 F (16 C)
Dew Point: 35 F (2 C)
Relative Humidity: 38%
Pressure (altimeter): 30.22 in. Hg (1023 hPa)
ob: KEBS 141355Z AUTO 19014KT 10SM FEW100 16/02 A3022 RMK AO2
cycle: 14

Station Type Date Time Source
KEBS TAF UTC NOAA

Error!

Example: see airport list